createdAt,value
2017-03-12T00:00:10.944Z,969.29
2017-03-12T00:01:21.273Z,969.27
2017-03-12T00:02:31.614Z,969.33
2017-03-12T00:03:41.980Z,969.28
2017-03-12T00:04:52.288Z,969.23
2017-03-12T00:06:02.185Z,969.27
2017-03-12T00:07:12.510Z,969.3
2017-03-12T00:08:23.245Z,969.15
2017-03-12T00:09:33.936Z,969.17
2017-03-12T00:10:43.062Z,969.15
2017-03-12T00:11:53.388Z,969.17
2017-03-12T00:13:04.091Z,969.13
2017-03-12T00:14:14.810Z,969.14
2017-03-12T00:15:25.524Z,969.13
2017-03-12T00:16:35.509Z,969.06
2017-03-12T00:17:46.241Z,969.01
2017-03-12T00:18:56.970Z,969.06
2017-03-12T00:20:07.707Z,969.05
2017-03-12T00:21:17.618Z,969.01
2017-03-12T00:22:28.345Z,968.93
2017-03-12T00:23:39.079Z,969.04
2017-03-12T00:24:49.407Z,969.08
2017-03-12T00:25:59.235Z,969
2017-03-12T00:27:09.964Z,969.14
2017-03-12T00:28:20.668Z,968.92
2017-03-12T00:29:30.605Z,968.98
2017-03-12T00:30:41.320Z,968.99
2017-03-12T00:31:51.264Z,969.02
2017-03-12T00:33:00.791Z,968.96
2017-03-12T00:34:11.131Z,968.93
2017-03-12T00:35:21.476Z,968.99
2017-03-12T00:36:31.043Z,968.93
2017-03-12T00:37:41.767Z,968.9
2017-03-12T00:38:52.514Z,968.85
2017-03-12T00:40:03.221Z,968.85
2017-03-12T00:41:12.822Z,968.76
2017-03-12T00:42:23.845Z,968.83
2017-03-12T00:43:34.195Z,968.78
2017-03-12T00:44:44.150Z,968.82
2017-03-12T00:45:54.860Z,968.84
2017-03-12T00:47:05.523Z,968.75
2017-03-12T00:48:15.484Z,968.75
2017-03-12T00:49:25.048Z,968.78
2017-03-12T00:50:35.401Z,968.73
2017-03-12T00:51:44.954Z,968.81
2017-03-12T00:52:54.902Z,968.69
2017-03-12T00:54:05.635Z,968.71
2017-03-12T00:55:15.589Z,968.69
2017-03-12T00:56:25.077Z,968.71
2017-03-12T00:57:35.232Z,968.71
2017-03-12T00:58:44.409Z,968.77
2017-03-12T00:59:54.412Z,968.58
2017-03-12T01:01:04.808Z,968.56
2017-03-12T01:02:15.528Z,968.55
2017-03-12T01:03:25.089Z,968.56
2017-03-12T01:04:35.439Z,968.57
2017-03-12T01:05:45.391Z,968.6
2017-03-12T01:06:55.749Z,968.56
2017-03-12T01:08:05.683Z,968.56
2017-03-12T01:09:15.623Z,968.54
2017-03-12T01:10:25.962Z,968.53
2017-03-12T01:11:36.673Z,968.5
2017-03-12T01:12:47.025Z,968.54
2017-03-12T01:13:56.964Z,968.5
2017-03-12T01:15:07.317Z,968.53
2017-03-12T01:16:17.286Z,968.43
2017-03-12T01:17:27.254Z,968.54
2017-03-12T01:18:37.608Z,968.46
2017-03-12T01:19:47.570Z,968.36
2017-03-12T01:20:57.909Z,968.39
2017-03-12T01:22:08.189Z,968.38
2017-03-12T01:23:18.548Z,968.48
2017-03-12T01:24:28.125Z,968.29
2017-03-12T01:25:38.499Z,968.34
2017-03-12T01:26:48.844Z,968.35
2017-03-12T01:27:59.368Z,968.26
2017-03-12T01:29:08.155Z,968.22
2017-03-12T01:30:17.710Z,968.21
2017-03-12T01:31:28.058Z,968.27
2017-03-12T01:32:38.010Z,968.22
2017-03-12T01:33:48.363Z,968.21
2017-03-12T01:34:58.948Z,968.28
2017-03-12T01:36:08.882Z,968.23
2017-03-12T01:37:19.239Z,968.26
2017-03-12T01:38:29.559Z,968.27
2017-03-12T01:39:39.479Z,968.3
2017-03-12T01:40:50.204Z,968.25
2017-03-12T01:42:00.923Z,968.08
2017-03-12T01:43:10.877Z,968.2
2017-03-12T01:44:21.533Z,968.18
2017-03-12T01:45:31.479Z,968.21
2017-03-12T01:46:42.257Z,968.2
2017-03-12T01:47:53.004Z,968.22
2017-03-12T01:49:03.738Z,968.2
2017-03-12T01:50:14.089Z,968.26
2017-03-12T01:51:24.031Z,968.2
2017-03-12T01:52:34.299Z,968.17
2017-03-12T01:53:44.983Z,968.18
2017-03-12T01:54:55.320Z,968.2
2017-03-12T01:56:05.298Z,968.19
2017-03-12T01:57:14.855Z,968.19
2017-03-12T01:58:25.201Z,968.22
2017-03-12T01:59:35.512Z,968.17
2017-03-12T02:00:45.860Z,968.25
2017-03-12T02:01:56.228Z,968.2
2017-03-12T02:03:06.966Z,968.14
2017-03-12T02:04:17.304Z,968.13
2017-03-12T02:05:27.584Z,968.11
2017-03-12T02:06:37.913Z,968.04
2017-03-12T02:07:48.640Z,968.07
2017-03-12T02:08:58.541Z,968.12
2017-03-12T02:10:09.263Z,968.25
2017-03-12T02:11:19.220Z,968.09
2017-03-12T02:12:29.169Z,968.09
2017-03-12T02:13:38.748Z,968.1
2017-03-12T02:14:48.692Z,968.08
2017-03-12T02:15:59.427Z,968.08
2017-03-12T02:17:09.374Z,968.07
2017-03-12T02:18:19.325Z,968.09
2017-03-12T02:19:29.604Z,968.02
2017-03-12T02:20:39.643Z,968
2017-03-12T02:21:50.382Z,967.95
2017-03-12T02:23:00.722Z,967.91
2017-03-12T02:24:11.080Z,967.91
2017-03-12T02:25:21.424Z,967.87
2017-03-12T02:26:31.743Z,967.88
2017-03-12T02:27:42.459Z,967.87
2017-03-12T02:28:53.198Z,967.94
2017-03-12T02:30:03.916Z,967.91
2017-03-12T02:31:14.259Z,967.89
2017-03-12T02:32:24.642Z,967.82
2017-03-12T02:33:34.572Z,967.88
2017-03-12T02:34:44.081Z,967.84
2017-03-12T02:35:54.813Z,967.82
2017-03-12T02:37:05.529Z,967.81
2017-03-12T02:38:15.510Z,967.84
2017-03-12T02:39:25.776Z,967.91
2017-03-12T02:40:36.445Z,967.87
2017-03-12T02:41:46.774Z,967.87
2017-03-12T02:42:55.947Z,967.78
2017-03-12T02:44:05.516Z,967.86
2017-03-12T02:45:15.458Z,967.85
2017-03-12T02:46:25.826Z,967.87
2017-03-12T02:47:36.557Z,967.9
2017-03-12T02:48:47.277Z,967.86
2017-03-12T02:49:58.006Z,967.86
2017-03-12T02:51:08.340Z,967.89
2017-03-12T02:52:18.932Z,967.9
2017-03-12T02:53:29.277Z,967.85
2017-03-12T02:54:39.607Z,967.9
2017-03-12T02:55:48.782Z,967.86
2017-03-12T02:56:59.809Z,967.86
2017-03-12T02:58:10.094Z,967.86
2017-03-12T02:59:20.390Z,967.82
2017-03-12T03:00:30.735Z,967.81
2017-03-12T03:01:41.030Z,967.8
2017-03-12T03:02:51.224Z,967.83
2017-03-12T03:04:00.418Z,967.84
2017-03-12T03:05:10.332Z,967.82
2017-03-12T03:06:19.539Z,967.87
2017-03-12T03:07:29.094Z,967.88
2017-03-12T03:08:39.058Z,967.78
2017-03-12T03:09:49.803Z,967.77
2017-03-12T03:11:00.552Z,967.82
2017-03-12T03:12:10.883Z,967.81
2017-03-12T03:13:20.447Z,967.75
2017-03-12T03:14:31.107Z,967.81
2017-03-12T03:15:41.838Z,967.72
2017-03-12T03:16:52.562Z,967.92
2017-03-12T03:18:02.846Z,967.74
2017-03-12T03:19:13.179Z,967.74
2017-03-12T03:20:23.910Z,967.75
2017-03-12T03:21:40.514Z,967.78
2017-03-12T03:22:50.876Z,967.8
2017-03-12T03:24:01.404Z,967.71
2017-03-12T03:25:11.362Z,967.72
2017-03-12T03:26:22.031Z,967.69
2017-03-12T03:27:32.383Z,967.7
2017-03-12T03:28:43.148Z,967.7
2017-03-12T03:29:53.503Z,967.79
2017-03-12T03:31:03.834Z,967.76
2017-03-12T03:32:13.793Z,967.74
2017-03-12T03:33:24.522Z,967.71
2017-03-12T03:34:34.874Z,967.72
2017-03-12T03:35:44.388Z,967.72
2017-03-12T03:36:55.126Z,967.69
2017-03-12T03:38:05.520Z,967.71
2017-03-12T03:39:15.480Z,967.7
2017-03-12T03:40:25.806Z,967.68
2017-03-12T03:41:36.467Z,967.67
2017-03-12T03:42:47.180Z,967.67
2017-03-12T03:43:57.522Z,967.75
2017-03-12T03:45:07.879Z,967.67
2017-03-12T03:46:18.231Z,967.68
2017-03-12T03:47:28.569Z,967.76
2017-03-12T03:48:38.504Z,967.64
2017-03-12T03:49:48.843Z,967.64
2017-03-12T03:50:59.510Z,967.63
2017-03-12T03:52:09.853Z,967.64
2017-03-12T03:53:20.597Z,967.66
2017-03-12T03:54:30.148Z,967.68
2017-03-12T03:55:40.882Z,967.66
2017-03-12T03:56:51.600Z,967.61
2017-03-12T03:58:01.972Z,967.63
2017-03-12T03:59:12.297Z,967.71
2017-03-12T04:00:22.436Z,967.55
2017-03-12T04:01:31.659Z,967.56
2017-03-12T04:02:41.218Z,967.59
2017-03-12T04:03:51.142Z,967.59
2017-03-12T04:05:01.501Z,967.55
2017-03-12T04:06:11.839Z,967.61
2017-03-12T04:07:21.412Z,967.55
2017-03-12T04:08:31.502Z,967.57
2017-03-12T04:09:41.842Z,967.58
2017-03-12T04:10:52.571Z,967.62
2017-03-12T04:12:02.535Z,967.56
2017-03-12T04:13:12.826Z,967.52
2017-03-12T04:14:23.551Z,967.55
2017-03-12T04:15:33.534Z,967.54
2017-03-12T04:16:43.811Z,967.63
2017-03-12T04:17:54.557Z,967.59
2017-03-12T04:19:03.732Z,967.64
2017-03-12T04:20:14.265Z,967.67
2017-03-12T04:21:24.598Z,967.64
2017-03-12T04:22:35.337Z,967.7
2017-03-12T04:23:45.680Z,967.64
2017-03-12T04:24:56.039Z,967.67
2017-03-12T04:26:05.997Z,967.6
2017-03-12T04:27:16.344Z,967.57
2017-03-12T04:28:26.687Z,967.55
2017-03-12T04:29:37.420Z,967.51
2017-03-12T04:30:47.377Z,967.5
2017-03-12T04:31:58.098Z,967.65
2017-03-12T04:33:08.463Z,967.52
2017-03-12T04:34:19.174Z,967.48
2017-03-12T04:35:29.109Z,967.52
2017-03-12T04:36:39.793Z,967.45
2017-03-12T04:37:49.739Z,967.42
2017-03-12T04:39:00.038Z,967.44
2017-03-12T04:40:10.771Z,967.47
2017-03-12T04:41:21.508Z,967.4
2017-03-12T04:42:31.834Z,967.39
2017-03-12T04:43:42.488Z,967.34
2017-03-12T04:44:52.812Z,967.37
2017-03-12T04:46:02.694Z,967.36
2017-03-12T04:47:12.584Z,967.33
2017-03-12T04:48:23.317Z,967.4
2017-03-12T04:49:33.978Z,967.42
2017-03-12T04:50:44.339Z,967.36
2017-03-12T04:51:55.047Z,967.45
2017-03-12T04:53:05.702Z,967.34
2017-03-12T04:54:16.061Z,967.38
2017-03-12T04:55:26.387Z,967.35
2017-03-12T04:56:37.126Z,967.28
2017-03-12T04:57:47.862Z,967.33
2017-03-12T04:58:58.611Z,967.37
2017-03-12T05:00:08.967Z,967.31
2017-03-12T05:01:19.684Z,967.22
2017-03-12T05:02:29.665Z,967.28
2017-03-12T05:03:39.639Z,967.31
2017-03-12T05:04:49.207Z,967.45
2017-03-12T05:05:59.547Z,967.32
2017-03-12T05:07:09.531Z,967.3
2017-03-12T05:08:20.084Z,967.3
2017-03-12T05:09:30.456Z,967.28
2017-03-12T05:10:41.175Z,967.24
2017-03-12T05:11:51.889Z,967.28
2017-03-12T05:13:02.160Z,967.26
2017-03-12T05:14:12.513Z,967.29
2017-03-12T05:15:22.848Z,967.18
2017-03-12T05:16:33.518Z,967.18
2017-03-12T05:17:43.867Z,967.22
2017-03-12T05:18:54.191Z,967.26
2017-03-12T05:20:04.535Z,967.24
2017-03-12T05:21:14.503Z,967.17
2017-03-12T05:22:24.458Z,967.2
2017-03-12T05:23:35.207Z,967.22
2017-03-12T05:24:45.934Z,967.21
2017-03-12T05:25:56.667Z,967.18
2017-03-12T05:27:07.010Z,967.19
2017-03-12T05:28:17.377Z,967.15
2017-03-12T05:29:27.717Z,967.22
2017-03-12T05:30:37.662Z,967.16
2017-03-12T05:31:47.965Z,967.15
2017-03-12T05:32:58.693Z,967.16
2017-03-12T05:34:09.276Z,967.19
2017-03-12T05:35:19.570Z,967.18
2017-03-12T05:36:29.938Z,967.19
2017-03-12T05:37:40.650Z,967.15
2017-03-12T05:38:50.612Z,967.18
2017-03-12T05:40:01.258Z,967.12
2017-03-12T05:41:11.345Z,967.12
2017-03-12T05:42:21.326Z,967.15
2017-03-12T05:43:31.668Z,967.13
2017-03-12T05:44:42.022Z,967.15
2017-03-12T05:45:51.992Z,967.2
2017-03-12T05:47:02.341Z,967.24
2017-03-12T05:48:13.087Z,967.17
2017-03-12T05:49:23.397Z,967.21
2017-03-12T05:50:34.119Z,967.15
2017-03-12T05:51:44.857Z,967.16
2017-03-12T05:52:55.206Z,967.21
2017-03-12T05:54:05.544Z,967.15
2017-03-12T05:55:15.099Z,967.17
2017-03-12T05:56:24.218Z,967.17
2017-03-12T05:57:34.944Z,967.16
2017-03-12T05:58:45.283Z,967.22
2017-03-12T05:59:55.622Z,967.15
2017-03-12T06:01:06.710Z,967.19
2017-03-12T06:02:16.617Z,967.21
2017-03-12T06:03:26.188Z,967.21
2017-03-12T06:04:36.919Z,967.2
2017-03-12T06:05:47.198Z,967.14
2017-03-12T06:06:57.542Z,967.12
2017-03-12T06:08:08.272Z,967.22
2017-03-12T06:09:18.592Z,967.12
2017-03-12T06:10:28.919Z,967.05
2017-03-12T06:11:39.512Z,967.08
2017-03-12T06:12:49.448Z,967.13
2017-03-12T06:13:59.424Z,967.09
2017-03-12T06:15:09.381Z,967.15
2017-03-12T06:16:19.263Z,967.18
2017-03-12T06:17:29.211Z,967.2
2017-03-12T06:18:39.945Z,967.19
2017-03-12T06:19:50.274Z,967.12
2017-03-12T06:21:00.267Z,967.24
2017-03-12T06:22:09.815Z,967.11
2017-03-12T06:23:20.148Z,967.18
2017-03-12T06:24:30.492Z,967.12
2017-03-12T06:25:40.837Z,967.12
2017-03-12T06:26:51.598Z,967.15
2017-03-12T06:28:02.322Z,967.17
2017-03-12T06:29:12.656Z,967.13
2017-03-12T06:30:22.236Z,967.1
2017-03-12T06:31:32.971Z,967.12
2017-03-12T06:32:43.691Z,967.17
2017-03-12T06:33:54.031Z,967.16
2017-03-12T06:35:04.377Z,967.21
2017-03-12T06:36:13.908Z,967.2
2017-03-12T06:37:24.640Z,967.26
2017-03-12T06:38:34.936Z,967.21
2017-03-12T06:39:45.253Z,967.23
2017-03-12T06:40:55.136Z,967.17
2017-03-12T06:42:05.497Z,967.21
2017-03-12T06:43:15.463Z,967.12
2017-03-12T06:44:25.390Z,967.22
2017-03-12T06:45:35.297Z,967.17
2017-03-12T06:46:45.262Z,967.19
2017-03-12T06:47:56.042Z,967.22
2017-03-12T06:49:05.991Z,967.34
2017-03-12T06:50:16.345Z,967.21
2017-03-12T06:51:26.308Z,967.23
2017-03-12T06:52:37.056Z,967.21
2017-03-12T06:53:47.443Z,967.24
2017-03-12T06:54:56.575Z,967.2
2017-03-12T06:56:07.273Z,967.27
2017-03-12T06:57:17.231Z,967.23
2017-03-12T06:58:27.982Z,967.25
2017-03-12T06:59:38.335Z,967.22
2017-03-12T07:00:48.292Z,967.35
2017-03-12T07:01:58.569Z,967.4
2017-03-12T07:03:08.481Z,967.33
2017-03-12T07:04:18.841Z,967.34
2017-03-12T07:05:28.815Z,967.29
2017-03-12T07:06:38.777Z,967.38
2017-03-12T07:07:48.338Z,967.27
2017-03-12T07:08:59.076Z,967.23
2017-03-12T07:10:10.136Z,967.26
2017-03-12T07:11:20.424Z,967.27
2017-03-12T07:12:30.774Z,967.37
2017-03-12T07:13:40.735Z,967.36
2017-03-12T07:14:51.074Z,967.29
2017-03-12T07:16:02.061Z,967.35
2017-03-12T07:17:12.782Z,967.33
2017-03-12T07:18:23.144Z,967.31
2017-03-12T07:19:32.659Z,967.31
2017-03-12T07:20:43.401Z,967.3
2017-03-12T07:21:53.740Z,967.29
2017-03-12T07:23:04.080Z,967.31
2017-03-12T07:24:14.423Z,967.23
2017-03-12T07:25:24.002Z,967.21
2017-03-12T07:26:33.977Z,967.27
2017-03-12T07:27:44.331Z,967.3
2017-03-12T07:28:54.677Z,967.27
2017-03-12T07:30:04.980Z,967.29
2017-03-12T07:31:14.537Z,967.3
2017-03-12T07:32:24.514Z,967.28
2017-03-12T07:33:35.238Z,967.27
2017-03-12T07:34:45.175Z,967.3
2017-03-12T07:35:55.453Z,967.29
2017-03-12T07:37:05.998Z,967.47
2017-03-12T07:38:16.368Z,967.34
2017-03-12T07:39:27.113Z,967.32
2017-03-12T07:40:37.075Z,967.29
2017-03-12T07:41:47.417Z,967.43
2017-03-12T07:42:58.147Z,967.45
2017-03-12T07:44:08.547Z,967.35
2017-03-12T07:45:18.448Z,967.42
2017-03-12T07:46:28.383Z,967.3
2017-03-12T07:47:37.888Z,967.37
2017-03-12T07:48:47.799Z,967.33
2017-03-12T07:49:57.755Z,967.39
2017-03-12T07:51:07.720Z,967.29
2017-03-12T07:52:17.305Z,967.34
2017-03-12T07:53:27.640Z,967.34
2017-03-12T07:54:37.995Z,967.39
2017-03-12T07:55:48.359Z,967.3
2017-03-12T07:56:58.246Z,967.34
2017-03-12T07:58:07.919Z,967.26
2017-03-12T07:59:17.893Z,967.37
2017-03-12T08:00:27.469Z,967.32
2017-03-12T08:01:38.493Z,967.26
2017-03-12T08:02:49.250Z,967.36
2017-03-12T08:03:59.578Z,967.38
2017-03-12T08:05:09.521Z,967.46
2017-03-12T08:06:19.889Z,967.4
2017-03-12T08:07:29.852Z,967.37
2017-03-12T08:08:40.191Z,967.29
2017-03-12T08:09:50.557Z,967.29
2017-03-12T08:11:00.506Z,967.23
2017-03-12T08:12:10.298Z,967.36
2017-03-12T08:13:20.244Z,967.28
2017-03-12T08:14:30.595Z,967.41
2017-03-12T08:15:40.935Z,967.35
2017-03-12T08:16:51.290Z,967.39
2017-03-12T08:18:02.025Z,967.33
2017-03-12T08:19:13.018Z,967.37
2017-03-12T08:20:23.762Z,967.31
2017-03-12T08:21:34.091Z,967.37
2017-03-12T08:22:44.457Z,967.32
2017-03-12T08:23:54.783Z,967.32
2017-03-12T08:25:04.342Z,967.4
2017-03-12T08:26:13.883Z,967.27
2017-03-12T08:27:23.063Z,967.2
2017-03-12T08:28:33.679Z,967.16
2017-03-12T08:29:44.019Z,967.31
2017-03-12T08:30:54.220Z,967.22
2017-03-12T08:32:04.549Z,967.31
2017-03-12T08:33:14.124Z,967.23
2017-03-12T08:34:24.074Z,967.18
2017-03-12T08:38:22.202Z,967.32
2017-03-12T08:39:31.793Z,967.2
2017-03-12T08:40:41.314Z,967.19
2017-03-12T08:41:50.903Z,967.15
2017-03-12T08:43:00.482Z,967.15
2017-03-12T08:44:10.082Z,967.18
2017-03-12T08:45:19.291Z,967.26
2017-03-12T08:46:28.899Z,967.16
2017-03-12T08:47:39.277Z,967.15
2017-03-12T08:48:48.467Z,967.09
2017-03-12T08:49:57.619Z,967.17
2017-03-12T08:51:07.593Z,967.06
2017-03-12T08:52:17.145Z,967.14
2017-03-12T08:53:26.347Z,967.1
2017-03-12T08:54:35.922Z,967.21
2017-03-12T08:55:45.910Z,967.09
2017-03-12T08:56:55.487Z,967.09
2017-03-12T08:58:04.688Z,967.29
2017-03-12T08:59:13.867Z,967.17
2017-03-12T09:00:23.481Z,967.08
2017-03-12T09:01:32.655Z,967.11
2017-03-12T09:02:42.214Z,967.13
2017-03-12T09:03:52.569Z,967.06
2017-03-12T09:05:01.743Z,967.1
2017-03-12T09:06:11.701Z,967.13
2017-03-12T09:07:21.295Z,967.1
2017-03-12T09:08:30.485Z,967.12
2017-03-12T09:09:40.096Z,967.09
2017-03-12T09:10:49.615Z,967.19
2017-03-12T09:11:58.410Z,967.26
2017-03-12T09:13:07.979Z,967.13
2017-03-12T09:14:17.556Z,967.08
2017-03-12T09:15:27.525Z,967.01
2017-03-12T09:16:36.345Z,967.33
2017-03-12T09:17:45.466Z,967.07
2017-03-12T09:18:55.438Z,967.07
2017-03-12T09:20:04.952Z,967.14
2017-03-12T09:21:13.751Z,967.12
2017-03-12T09:22:23.258Z,967.29
2017-03-12T09:23:33.239Z,967.01
2017-03-12T09:24:42.848Z,967.25
2017-03-12T09:25:53.586Z,967.07
2017-03-12T09:27:02.833Z,967.04
2017-03-12T09:28:13.187Z,967.02
2017-03-12T09:29:22.392Z,967.09
2017-03-12T09:30:32.368Z,967.07
2017-03-12T09:31:42.020Z,967.14
2017-03-12T09:32:51.620Z,967.09
2017-03-12T09:34:01.991Z,967.04
2017-03-12T09:35:11.198Z,967.02
2017-03-12T09:36:20.389Z,967.13
2017-03-12T09:37:29.517Z,967.32
2017-03-12T09:38:39.430Z,967.19
2017-03-12T09:39:48.647Z,967.12
2017-03-12T09:40:57.442Z,967.1
2017-03-12T09:42:07.046Z,967.07
2017-03-12T09:43:16.232Z,967.08
2017-03-12T09:44:25.416Z,967.15
2017-03-12T09:45:34.614Z,967.22
2017-03-12T09:46:44.589Z,967.2
2017-03-12T09:47:54.041Z,967.26
2017-03-12T09:49:04.457Z,967.25
2017-03-12T09:50:13.635Z,967.32
2017-03-12T09:51:23.224Z,967.32
2017-03-12T09:52:32.419Z,967.31
2017-03-12T09:53:43.164Z,967.39
2017-03-12T09:54:53.160Z,967.26
2017-03-12T09:56:03.121Z,967.31
2017-03-12T09:57:13.034Z,967.3
2017-03-12T09:58:22.637Z,967.33
2017-03-12T09:59:32.619Z,967.33
2017-03-12T10:02:14.774Z,967.43
2017-03-12T10:03:25.376Z,967.3
2017-03-12T10:04:35.331Z,967.31
2017-03-12T10:05:45.690Z,967.34
2017-03-12T10:06:56.418Z,967.35
2017-03-12T10:08:06.323Z,967.27
2017-03-12T10:09:16.315Z,967.47
2017-03-12T10:10:26.230Z,967.33
2017-03-12T10:11:35.821Z,967.31
2017-03-12T10:12:45.737Z,967.25
2017-03-12T10:13:55.710Z,967.25
2017-03-12T10:15:05.285Z,967.23
2017-03-12T10:16:15.258Z,967.27
2017-03-12T10:17:24.845Z,967.36
2017-03-12T10:18:34.729Z,967.31
2017-03-12T10:19:43.858Z,967.34
2017-03-12T10:20:53.823Z,967.28
2017-03-12T10:22:04.434Z,967.23
2017-03-12T10:23:13.623Z,967.31
2017-03-12T10:24:23.207Z,967.23
2017-03-12T10:25:33.117Z,967.24
2017-03-12T10:26:43.058Z,967.31
2017-03-12T10:27:53.364Z,967.25
2017-03-12T10:29:03.342Z,967.24
2017-03-12T10:30:12.916Z,967.24
2017-03-12T10:31:23.204Z,967.17
2017-03-12T10:35:31.168Z,967.22
2017-03-12T10:36:40.308Z,967.26
2017-03-12T10:37:49.509Z,967.39
2017-03-12T10:38:59.497Z,967.22
2017-03-12T10:40:09.875Z,967.54
2017-03-12T10:41:18.685Z,967.3
2017-03-12T10:42:28.276Z,967.38
2017-03-12T10:43:38.247Z,967.23
2017-03-12T10:44:47.767Z,967.31
2017-03-12T10:45:58.078Z,967.2
2017-03-12T10:47:08.072Z,967.29
2017-03-12T10:48:17.668Z,967.21
2017-03-12T10:49:27.517Z,967.27
2017-03-12T10:50:37.092Z,967.23
2017-03-12T10:51:47.836Z,967.31
2017-03-12T10:52:57.045Z,967.35
2017-03-12T10:54:07.027Z,967.37
2017-03-12T10:55:16.989Z,967.38
2017-03-12T10:56:26.597Z,967.33
2017-03-12T10:57:36.568Z,967.27
2017-03-12T10:58:46.925Z,967.36
2017-03-12T10:59:57.597Z,967.41
2017-03-12T11:01:07.198Z,967.45
2017-03-12T11:02:17.157Z,967.32
2017-03-12T11:03:26.683Z,967.51
2017-03-12T11:04:42.940Z,967.33
2017-03-12T11:05:53.297Z,967.32
2017-03-12T11:07:03.274Z,967.4
2017-03-12T11:08:12.857Z,967.38
2017-03-12T11:09:22.817Z,967.31
2017-03-12T11:10:33.178Z,967.32
2017-03-12T11:11:42.761Z,967.32
2017-03-12T11:12:52.012Z,967.3
2017-03-12T11:14:02.372Z,967.3
2017-03-12T11:15:11.969Z,967.33
2017-03-12T11:16:21.548Z,967.18
2017-03-12T11:17:31.508Z,967.22
2017-03-12T11:18:41.881Z,967.28
2017-03-12T11:19:51.006Z,967.35
2017-03-12T11:21:00.580Z,967.18
2017-03-12T11:22:10.152Z,967.23
2017-03-12T11:23:20.111Z,967.28
2017-03-12T11:24:30.086Z,967.23
2017-03-12T11:25:39.674Z,967.36
2017-03-12T11:26:49.968Z,967.21
2017-03-12T11:28:00.333Z,967.3
2017-03-12T11:29:09.536Z,967.22
2017-03-12T11:30:19.908Z,967.22
2017-03-12T11:31:29.881Z,967.18
2017-03-12T11:32:39.864Z,967.16
2017-03-12T11:33:50.231Z,967.2
2017-03-12T11:35:00.585Z,967.16
2017-03-12T11:36:10.504Z,967.26
2017-03-12T11:37:20.477Z,967.06
2017-03-12T11:38:31.165Z,967.09
2017-03-12T11:39:41.518Z,967.11
2017-03-12T11:40:51.480Z,967.16
2017-03-12T11:42:01.445Z,967.09
2017-03-12T11:43:11.797Z,967.15
2017-03-12T11:44:21.761Z,967.28
2017-03-12T11:45:31.738Z,967.22
2017-03-12T11:46:40.936Z,967.13
2017-03-12T11:47:50.514Z,967.17
2017-03-12T11:49:00.481Z,967.03
2017-03-12T11:50:10.414Z,967.04
2017-03-12T11:51:20.013Z,967.06
2017-03-12T11:52:29.609Z,967.06
2017-03-12T11:53:39.986Z,967.02
2017-03-12T11:54:49.575Z,967.06
2017-03-12T11:55:59.939Z,966.94
2017-03-12T11:57:10.915Z,966.95
2017-03-12T11:58:21.276Z,967.03
2017-03-12T11:59:32.008Z,966.92
2017-03-12T12:00:42.305Z,967.01
2017-03-12T12:01:52.274Z,966.93
2017-03-12T12:03:02.247Z,967.01
2017-03-12T12:04:12.635Z,966.96
2017-03-12T12:05:23.029Z,966.84
2017-03-12T12:06:33.023Z,966.97
2017-03-12T12:07:43.752Z,966.87
2017-03-12T12:08:54.747Z,966.81
2017-03-12T12:10:04.706Z,966.78
2017-03-12T12:11:14.236Z,966.75
2017-03-12T12:12:22.997Z,966.82
2017-03-12T12:13:32.207Z,966.77
2017-03-12T12:14:42.188Z,966.86
2017-03-12T12:15:51.376Z,966.73
2017-03-12T12:17:01.766Z,966.72
2017-03-12T12:18:11.347Z,966.72
2017-03-12T12:19:21.334Z,966.74
2017-03-12T12:20:31.300Z,966.67
2017-03-12T12:21:41.288Z,966.66
2017-03-12T12:22:52.029Z,966.65
2017-03-12T12:24:02.004Z,966.67
2017-03-12T12:25:11.592Z,966.67
2017-03-12T12:26:21.203Z,966.75
2017-03-12T12:27:31.573Z,966.73
2017-03-12T12:28:41.540Z,966.72
2017-03-12T12:29:51.899Z,966.67
2017-03-12T12:31:02.244Z,966.64
2017-03-12T12:32:12.600Z,966.65
2017-03-12T12:33:23.344Z,966.66
2017-03-12T12:34:33.329Z,966.61
2017-03-12T12:35:42.906Z,966.63
2017-03-12T12:36:52.461Z,966.62
2017-03-12T12:38:02.570Z,966.66
2017-03-12T12:39:12.885Z,966.54
2017-03-12T12:40:23.576Z,966.57
2017-03-12T12:41:33.549Z,966.5
2017-03-12T12:42:43.722Z,966.56
2017-03-12T12:43:54.074Z,966.53
2017-03-12T12:45:04.390Z,966.52
2017-03-12T12:46:14.673Z,966.5
2017-03-12T12:47:24.290Z,966.51
2017-03-12T12:48:34.263Z,966.47
2017-03-12T12:49:44.619Z,966.51
2017-03-12T12:50:55.373Z,966.49
2017-03-12T12:52:05.346Z,966.46
2017-03-12T12:53:14.945Z,966.5
2017-03-12T12:54:24.506Z,966.48
2017-03-12T12:55:34.489Z,966.47
2017-03-12T12:56:43.641Z,966.52
2017-03-12T12:57:54.028Z,966.51
2017-03-12T12:59:04.000Z,966.48
2017-03-12T13:00:13.454Z,966.45
2017-03-12T13:01:23.813Z,966.5
2017-03-12T13:02:34.185Z,966.46
2017-03-12T13:03:44.929Z,966.4
2017-03-12T13:04:55.302Z,966.42
2017-03-12T13:06:05.666Z,966.49
2017-03-12T13:07:15.248Z,966.48
2017-03-12T13:08:25.249Z,966.47
2017-03-12T13:09:35.238Z,966.42
2017-03-12T13:10:45.584Z,966.51
2017-03-12T13:11:55.165Z,966.48
2017-03-12T13:13:05.159Z,966.45
2017-03-12T13:14:15.144Z,966.41
2017-03-12T13:15:24.731Z,966.41
2017-03-12T13:16:38.095Z,966.38
2017-03-12T13:17:47.650Z,966.34
2017-03-12T13:18:58.001Z,966.3
2017-03-12T13:20:07.217Z,966.34
2017-03-12T13:21:17.937Z,966.37
2017-03-12T13:22:28.227Z,966.36
2017-03-12T13:23:37.757Z,966.44
2017-03-12T13:24:47.350Z,966.32
2017-03-12T13:25:57.306Z,966.35
2017-03-12T13:27:07.269Z,966.34
2017-03-12T13:28:17.550Z,966.34
2017-03-12T13:29:27.129Z,966.45
2017-03-12T13:30:36.351Z,966.34
2017-03-12T13:31:45.928Z,966.41
2017-03-12T13:32:55.888Z,966.33
2017-03-12T13:34:05.470Z,966.32
2017-03-12T13:35:15.438Z,966.34
2017-03-12T13:36:26.102Z,966.26
2017-03-12T13:37:36.395Z,966.34
2017-03-12T13:38:46.332Z,966.25
2017-03-12T13:39:57.051Z,966.19
2017-03-12T13:41:06.781Z,966.24
2017-03-12T13:42:17.142Z,966.3
2017-03-12T13:43:26.728Z,966.23
2017-03-12T13:44:36.681Z,966.29
2017-03-12T13:45:47.017Z,966.27
2017-03-12T13:46:55.768Z,966.29
2017-03-12T13:48:06.410Z,966.27
2017-03-12T13:49:15.555Z,966.28
2017-03-12T13:50:25.148Z,966.3
2017-03-12T13:51:35.126Z,966.34
2017-03-12T13:52:45.108Z,966.3
2017-03-12T13:53:54.691Z,966.22
2017-03-12T13:55:05.069Z,966.31
2017-03-12T13:56:15.040Z,966.27
2017-03-12T13:57:25.788Z,966.26
2017-03-12T13:58:34.984Z,966.29
2017-03-12T13:59:44.559Z,966.25
2017-03-12T14:00:54.529Z,966.27
2017-03-12T14:02:03.706Z,966.34
2017-03-12T14:03:13.610Z,966.26
2017-03-12T14:04:23.977Z,966.26
2017-03-12T14:05:33.563Z,966.24
2017-03-12T14:06:44.146Z,966.23
2017-03-12T14:07:54.425Z,966.21
2017-03-12T14:09:04.783Z,966.15
2017-03-12T14:10:15.544Z,966.21
2017-03-12T14:11:25.511Z,966.13
2017-03-12T14:12:35.913Z,966.15
2017-03-12T14:13:46.674Z,966.06
2017-03-12T14:14:57.030Z,966.09
2017-03-12T14:16:06.700Z,966.08
2017-03-12T14:17:17.000Z,966.13
2017-03-12T14:18:27.357Z,966.05
2017-03-12T14:19:37.327Z,966.1
2017-03-12T14:20:48.063Z,966.07
2017-03-12T14:21:58.439Z,966.15
2017-03-12T14:23:07.641Z,966.11
2017-03-12T14:24:16.462Z,966.08
2017-03-12T14:25:26.437Z,966.15
2017-03-12T14:26:37.186Z,966.12
2017-03-12T14:27:47.148Z,966.15
2017-03-12T14:28:57.766Z,966.09
2017-03-12T14:30:07.747Z,966.12
2017-03-12T14:31:16.552Z,966.09
2017-03-12T14:32:26.919Z,966.08
2017-03-12T14:33:37.276Z,966.21
2017-03-12T14:34:47.578Z,966.02
2017-03-12T14:35:57.500Z,966.09
2017-03-12T14:37:06.820Z,966.07
2017-03-12T14:38:16.337Z,966.18
2017-03-12T14:39:26.296Z,966.04
2017-03-12T14:40:36.660Z,966.01
2017-03-12T14:41:47.029Z,966.07
2017-03-12T14:42:57.400Z,966.05
2017-03-12T14:44:07.317Z,966